Time;durP1;ratioP1;P1;durP2;ratioP2;P2;SDS_P1;SDS_P2;PMS_P1;PMS_P2;Temp;Humidity;BMP_temperature;BMP_pressure;BME280_temperature;BME280_humidity;BME280_pressure;Samples;Min_cycle;Max_cycle;Signal;HPM_P1;HPM_P2
2021/12/04 00:00:01;;;;;;;2.80;2.60;;;3.60;99.90;;;;;;5071951;28;20201;-72
2021/12/04 00:02:28;;;;;;;4.00;2.35;;;3.60;99.90;;;;;;5070413;28;20207;-72
2021/12/04 00:04:58;;;;;;;2.58;2.38;;;3.60;99.90;;;;;;5072626;28;20200;-72
2021/12/04 00:07:26;;;;;;;3.53;2.75;;;3.70;99.90;;;;;;5071535;28;20199;-72
2021/12/04 00:09:58;;;;;;;3.35;2.42;;;3.70;99.90;;;;;;5071657;28;20220;-72
2021/12/04 00:12:25;;;;;;;3.42;2.60;;;3.70;99.90;;;;;;5072679;28;20200;-71
2021/12/04 00:14:52;;;;;;;3.65;2.38;;;3.70;99.90;;;;;;5070734;28;20219;-71
2021/12/04 00:17:19;;;;;;;2.70;2.50;;;3.70;99.90;;;;;;5070621;28;20652;-72
2021/12/04 00:19:46;;;;;;;3.50;2.20;;;3.80;99.90;;;;;;5072039;28;20679;-71
2021/12/04 00:22:15;;;;;;;2.28;2.10;;;3.80;99.90;;;;;;5071528;28;20283;-72
2021/12/04 00:24:42;;;;;;;2.75;2.35;;;3.80;99.90;;;;;;5071966;28;20189;-72
2021/12/04 00:27:09;;;;;;;3.05;2.75;;;3.80;99.90;;;;;;5072300;28;20197;-71
2021/12/04 00:29:36;;;;;;;3.00;2.80;;;3.80;99.90;;;;;;5071368;28;20216;-72
2021/12/04 00:32:10;;;;;;;3.42;2.35;;;3.80;99.90;;;;;;5070721;28;20621;-71
2021/12/04 00:34:40;;;;;;;2.65;2.45;;;3.80;99.90;;;;;;5070610;28;20319;-71
2021/12/04 00:37:19;;;;;;;2.35;2.15;;;3.90;99.90;;;;;;5071437;28;20288;-72
2021/12/04 00:50:46;;;;;;;2.42;2.20;;;4.00;99.90;;;;;;5071040;28;20567;-72
2021/12/04 00:53:13;;;;;;;2.83;2.63;;;4.00;99.90;;;;;;5070235;28;20647;-71
2021/12/04 00:55:41;;;;;;;2.70;2.50;;;4.00;99.90;;;;;;5070816;28;20188;-72
2021/12/04 00:58:08;;;;;;;2.90;2.55;;;4.10;99.90;;;;;;5069826;28;20205;-72
2021/12/04 01:00:35;;;;;;;3.13;2.65;;;4.10;99.90;;;;;;5070705;28;20578;-72
2021/12/04 01:03:02;;;;;;;2.75;2.55;;;4.10;99.90;;;;;;5070853;28;20276;-72
2021/12/04 01:05:29;;;;;;;4.70;2.80;;;4.10;99.90;;;;;;5071825;28;20188;-71
2021/12/04 01:07:56;;;;;;;4.15;2.97;;;4.20;99.90;;;;;;5070748;28;20193;-72
2021/12/04 01:10:22;;;;;;;2.90;2.70;;;4.20;99.90;;;;;;5062954;28;20303;-72
2021/12/04 01:12:51;;;;;;;3.30;3.00;;;4.10;99.90;;;;;;5070313;28;20222;-71
2021/12/04 01:15:18;;;;;;;2.95;2.75;;;4.10;99.90;;;;;;5071186;28;20627;-72
2021/12/04 01:17:45;;;;;;;3.03;2.72;;;4.10;99.90;;;;;;5071626;28;20671;-72
2021/12/04 01:20:12;;;;;;;4.25;3.28;;;4.10;99.90;;;;;;5071030;28;20246;-72
2021/12/04 01:22:39;;;;;;;4.00;3.53;;;4.00;99.90;;;;;;5070678;28;20559;-72
2021/12/04 01:25:07;;;;;;;5.50;3.60;;;4.00;99.90;;;;;;5071065;28;20196;-72
2021/12/04 01:27:35;;;;;;;4.13;3.72;;;3.90;99.90;;;;;;5067669;28;20188;-72
2021/12/04 01:30:05;;;;;;;4.32;3.92;;;3.80;99.90;;;;;;5070307;28;20277;-71
2021/12/04 01:32:32;;;;;;;3.65;3.38;;;3.80;99.90;;;;;;5065185;28;20266;-72
2021/12/04 01:34:59;;;;;;;6.38;3.63;;;3.80;99.90;;;;;;5071390;28;20192;-72
2021/12/04 01:37:26;;;;;;;3.95;3.65;;;3.80;99.90;;;;;;5070026;28;20196;-72
2021/12/04 01:39:53;;;;;;;4.82;4.43;;;3.80;99.90;;;;;;5069183;28;20192;-72
2021/12/04 01:42:21;;;;;;;4.50;4.10;;;3.80;99.90;;;;;;5070965;28;20671;-72
2021/12/04 01:44:48;;;;;;;4.40;4.00;;;3.80;99.90;;;;;;5070644;28;20676;-72
2021/12/04 01:47:19;;;;;;;5.28;4.80;;;3.70;99.90;;;;;;5070402;28;20227;-72
2021/12/04 01:49:48;;;;;;;4.03;3.72;;;3.50;99.90;;;;;;5068844;28;20260;-73
2021/12/04 01:52:17;;;;;;;4.47;4.07;;;3.50;99.90;;;;;;5070866;28;20201;-73
2021/12/04 01:54:44;;;;;;;6.03;4.30;;;3.40;99.90;;;;;;5068866;28;20200;-72
2021/12/04 01:57:13;;;;;;;4.28;3.90;;;3.30;99.90;;;;;;5070334;28;20326;-72
2021/12/04 01:59:40;;;;;;;4.25;3.85;;;3.20;99.90;;;;;;5069370;28;20203;-73
2021/12/04 02:02:08;;;;;;;5.47;4.68;;;3.10;99.90;;;;;;5070952;28;20211;-73
2021/12/04 02:04:36;;;;;;;6.60;4.68;;;2.90;99.90;;;;;;5070729;28;20754;-73
2021/12/04 02:07:04;;;;;;;5.53;4.57;;;2.80;99.90;;;;;;5070049;28;20192;-73
2021/12/04 02:09:31;;;;;;;7.00;4.95;;;2.70;99.90;;;;;;5071657;28;20228;-74
2021/12/04 02:11:59;;;;;;;9.30;5.10;;;2.60;99.90;;;;;;5073298;28;20212;-73
2021/12/04 02:14:26;;;;;;;16.30;6.15;;;2.60;99.90;;;;;;5074674;28;20664;-74
2021/12/04 02:16:53;;;;;;;6.32;4.70;;;2.60;99.90;;;;;;5074218;28;20215;-74
2021/12/04 02:19:20;;;;;;;5.68;5.18;;;2.60;99.90;;;;;;5074917;28;20232;-73
2021/12/04 02:21:49;;;;;;;4.93;4.53;;;2.60;99.90;;;;;;5071809;28;20244;-73
2021/12/04 02:24:15;;;;;;;4.82;4.35;;;2.60;99.90;;;;;;5074076;28;20658;-73
2021/12/04 02:26:43;;;;;;;5.20;4.57;;;2.70;99.90;;;;;;5074326;28;20193;-73
2021/12/04 02:29:11;;;;;;;5.05;4.60;;;2.80;99.90;;;;;;5073605;28;20248;-73
2021/12/04 02:31:39;;;;;;;4.82;4.40;;;2.80;99.90;;;;;;5072964;28;20675;-74
2021/12/04 02:34:06;;;;;;;4.22;3.83;;;2.90;99.90;;;;;;5074432;28;20253;-73
2021/12/04 02:36:33;;;;;;;4.55;4.15;;;2.90;99.90;;;;;;5070169;28;20193;-73
2021/12/04 02:39:02;;;;;;;5.50;4.25;;;3.00;99.90;;;;;;5073438;28;20575;-73
2021/12/04 02:41:29;;;;;;;5.20;4.20;;;3.00;99.90;;;;;;5073344;28;20728;-74
2021/12/04 02:43:56;;;;;;;4.72;4.25;;;3.00;99.90;;;;;;5073073;28;20610;-74
2021/12/04 02:46:23;;;;;;;4.93;4.53;;;3.10;99.90;;;;;;5073918;28;20242;-74
2021/12/04 02:48:50;;;;;;;5.20;4.70;;;3.20;99.90;;;;;;5072383;28;20226;-74
2021/12/04 02:51:19;;;;;;;5.43;4.90;;;3.20;99.90;;;;;;5073479;28;20212;-74
2021/12/04 02:53:45;;;;;;;5.80;5.30;;;3.10;99.90;;;;;;5074243;28;20196;-74
2021/12/04 02:56:14;;;;;;;7.35;6.32;;;3.10;99.90;;;;;;5073652;28;20193;-73
2021/12/04 02:58:44;;;;;;;6.35;5.75;;;3.20;99.90;;;;;;5073798;28;20625;-73
2021/12/04 03:01:11;;;;;;;6.43;5.70;;;3.10;99.90;;;;;;5072884;28;20224;-74
2021/12/04 03:03:38;;;;;;;5.88;5.38;;;3.10;99.90;;;;;;5073859;28;20196;-74
2021/12/04 03:06:05;;;;;;;6.03;5.53;;;3.00;99.90;;;;;;5072356;28;20215;-74
2021/12/04 03:08:32;;;;;;;7.50;6.65;;;3.00;99.90;;;;;;5073361;28;20275;-73
2021/12/04 03:10:59;;;;;;;6.95;6.25;;;3.00;99.90;;;;;;5071238;28;20306;-75
2021/12/04 03:13:28;;;;;;;5.88;5.35;;;2.90;99.90;;;;;;5069863;28;20300;-73
2021/12/04 03:15:59;;;;;;;7.47;6.70;;;2.80;99.90;;;;;;5073099;28;20196;-74
2021/12/04 03:18:26;;;;;;;8.30;7.55;;;2.80;99.90;;;;;;5073566;28;20231;-73
2021/12/04 03:20:55;;;;;;;10.43;8.45;;;2.70;99.90;;;;;;5072241;28;20248;-73
2021/12/04 03:23:28;;;;;;;9.68;8.00;;;2.60;99.90;;;;;;5073627;28;20197;-74
2021/12/04 03:25:59;;;;;;;9.88;8.15;;;2.60;99.90;;;;;;5071494;28;20323;-74
2021/12/04 03:28:27;;;;;;;10.98;8.65;;;2.50;99.90;;;;;;5072776;28;20188;-74
2021/12/04 03:30:59;;;;;;;10.55;9.25;;;2.50;99.90;;;;;;5071149;28;20224;-73
2021/12/04 03:41:40;;;;;;;13.02;10.75;;;2.40;99.90;;;;;;5073026;28;20251;-74
2021/12/04 03:44:07;;;;;;;14.10;12.20;;;2.30;99.90;;;;;;5072899;28;20188;-73
2021/12/04 03:46:35;;;;;;;12.50;11.20;;;2.30;99.90;;;;;;5071704;28;20197;-73
2021/12/04 03:49:02;;;;;;;14.45;12.60;;;2.30;99.90;;;;;;5072029;28;20815;-73
2021/12/04 03:51:29;;;;;;;13.43;11.07;;;2.30;99.90;;;;;;5071203;28;20304;-73
2021/12/04 03:53:55;;;;;;;15.27;12.02;;;2.30;99.90;;;;;;5072088;28;20525;-74
2021/12/04 03:56:24;;;;;;;12.90;11.15;;;2.40;99.90;;;;;;5071884;28;20287;-74
2021/12/04 03:58:51;;;;;;;12.55;11.27;;;2.40;99.90;;;;;;5072900;28;20189;-74
2021/12/04 04:01:18;;;;;;;13.90;12.13;;;2.40;99.90;;;;;;5071065;28;20217;-74
2021/12/04 04:03:46;;;;;;;15.63;12.80;;;2.50;99.90;;;;;;5072537;28;20189;-74
2021/12/04 04:06:13;;;;;;;12.98;11.18;;;2.40;99.90;;;;;;5072381;28;20197;-74
2021/12/04 04:08:40;;;;;;;15.98;12.05;;;2.50;99.90;;;;;;5072218;28;20279;-74
2021/12/04 04:11:07;;;;;;;15.55;12.23;;;2.50;99.90;;;;;;5071770;28;20232;-73
2021/12/04 04:13:36;;;;;;;14.98;11.70;;;2.50;99.90;;;;;;5070825;28;20643;-74
2021/12/04 04:16:04;;;;;;;16.02;12.95;;;2.60;99.90;;;;;;5072390;28;20211;-74
2021/12/04 04:18:32;;;;;;;15.07;12.43;;;2.60;99.90;;;;;;5071423;28;20197;-74
2021/12/04 04:21:01;;;;;;;15.70;12.07;;;2.60;99.90;;;;;;5069434;28;20280;-74
2021/12/04 04:23:28;;;;;;;13.48;11.90;;;2.60;99.90;;;;;;5070095;28;20207;-74
2021/12/04 04:25:55;;;;;;;13.20;11.80;;;2.60;99.90;;;;;;5071843;28;20266;-74
2021/12/04 04:28:22;;;;;;;15.02;11.23;;;2.60;99.90;;;;;;5072066;28;20278;-73
2021/12/04 04:30:49;;;;;;;13.60;11.90;;;2.70;99.90;;;;;;5069147;28;20250;-74
2021/12/04 04:33:16;;;;;;;14.68;10.85;;;2.60;99.90;;;;;;5071760;28;20232;-73
2021/12/04 04:35:45;;;;;;;15.60;12.43;;;2.60;99.90;;;;;;5071101;28;20300;-74
2021/12/04 04:38:23;;;;;;;13.25;11.75;;;2.60;99.90;;;;;;5071954;28;20303;-73
2021/12/04 04:57:41;;;;;;;13.60;11.68;;;2.80;99.90;;;;;;5071390;28;20246;-73
2021/12/04 05:11:39;;;;;;;12.65;10.45;;;2.90;99.90;;;;;;5046276;28;20877;-79
2021/12/04 05:14:06;;;;;;;11.70;9.95;;;3.00;99.90;;;;;;5041478;28;20193;-79
2021/12/04 05:16:44;;;;;;;14.20;11.13;;;3.00;99.90;;;;;;5044224;28;20600;-79
2021/12/04 05:19:25;;;;;;;12.52;9.75;;;3.10;99.90;;;;;;5046097;28;20204;-79
2021/12/04 05:21:53;;;;;;;12.40;11.02;;;3.10;99.90;;;;;;5046082;28;20216;-79
2021/12/04 05:24:19;;;;;;;10.60;9.00;;;3.10;99.90;;;;;;5047158;28;20197;-79
2021/12/04 05:26:46;;;;;;;10.70;8.90;;;3.10;99.90;;;;;;5045219;28;20225;-80
2021/12/04 05:29:13;;;;;;;10.25;9.15;;;3.10;99.90;;;;;;5043016;28;20197;-79
2021/12/04 05:31:40;;;;;;;11.20;9.10;;;3.10;99.90;;;;;;5047156;28;20197;-79
2021/12/04 05:34:07;;;;;;;12.73;10.00;;;3.10;99.90;;;;;;5041970;28;20304;-79
2021/12/04 05:36:35;;;;;;;9.52;8.45;;;3.10;99.90;;;;;;5038456;28;20308;-79
2021/12/04 05:39:03;;;;;;;11.52;10.00;;;3.10;99.90;;;;;;5033899;28;20209;-80
2021/12/04 05:41:30;;;;;;;12.38;9.90;;;3.10;99.90;;;;;;5037974;28;20225;-79
2021/12/04 05:43:59;;;;;;;12.00;9.43;;;3.10;99.90;;;;;;5038878;28;20194;-80
2021/12/04 05:46:28;;;;;;;12.02;9.15;;;3.10;99.90;;;;;;5036147;28;20258;-79
2021/12/04 05:48:57;;;;;;;11.60;9.93;;;3.10;99.90;;;;;;5037478;28;20288;-79
2021/12/04 05:51:35;;;;;;;13.32;9.30;;;3.10;99.90;;;;;;5042454;28;20217;-79
2021/12/04 05:54:06;;;;;;;11.40;8.88;;;3.10;99.90;;;;;;5039120;28;20197;-79
2021/12/04 05:56:35;;;;;;;8.90;8.00;;;3.20;99.90;;;;;;5040371;28;20197;-79
2021/12/04 05:59:04;;;;;;;10.88;9.65;;;3.20;99.90;;;;;;5043684;28;20256;-79
2021/12/04 06:01:32;;;;;;;11.73;9.88;;;3.20;99.90;;;;;;5032884;28;20220;-79
2021/12/04 06:04:00;;;;;;;9.48;8.48;;;3.20;99.90;;;;;;5045384;28;20280;-79
2021/12/04 06:06:27;;;;;;;10.48;9.05;;;3.10;99.90;;;;;;5043691;28;20628;-80
2021/12/04 06:08:54;;;;;;;8.80;7.97;;;3.10;99.90;;;;;;5046148;28;20255;-79
2021/12/04 06:11:23;;;;;;;11.48;8.82;;;3.10;99.90;;;;;;5045607;28;20544;-79
2021/12/04 06:13:50;;;;;;;9.02;8.10;;;3.10;99.90;;;;;;5035328;28;20277;-79
2021/12/04 06:16:17;;;;;;;9.75;8.75;;;3.10;99.90;;;;;;5025845;28;20240;-79
2021/12/04 06:18:46;;;;;;;10.15;8.48;;;3.10;99.90;;;;;;5027567;28;20190;-79
2021/12/04 06:23:58;;;;;;;18.73;10.55;;;3.20;99.90;;;;;;5044342;28;20231;-80
2021/12/04 06:26:26;;;;;;;10.05;9.05;;;3.20;99.90;;;;;;5026868;28;20229;-80
2021/12/04 06:28:53;;;;;;;9.32;8.43;;;3.30;99.90;;;;;;5031595;28;20293;-80
2021/12/04 06:31:20;;;;;;;9.77;8.88;;;3.30;99.90;;;;;;5031562;28;20222;-80
2021/12/04 06:33:47;;;;;;;9.68;8.70;;;3.40;99.90;;;;;;5030240;28;20205;-80
2021/12/04 06:36:15;;;;;;;9.20;8.20;;;3.40;99.90;;;;;;5030652;28;20198;-79
2021/12/04 06:38:42;;;;;;;9.98;8.98;;;3.50;99.90;;;;;;5030717;28;20222;-79
2021/12/04 06:41:09;;;;;;;10.02;9.13;;;3.50;99.90;;;;;;5031490;28;20221;-79
2021/12/04 06:43:43;;;;;;;8.77;7.88;;;3.50;99.90;;;;;;5031870;28;20221;-79
2021/12/04 06:46:11;;;;;;;10.80;9.70;;;3.60;99.90;;;;;;5027574;28;20280;-79
2021/12/04 06:48:41;;;;;;;9.60;8.70;;;3.60;99.90;;;;;;5019573;28;20229;-81
2021/12/04 06:51:16;;;;;;;9.38;8.52;;;3.60;99.90;;;;;;5024448;28;20332;-80
2021/12/04 06:53:47;;;;;;;10.40;9.40;;;3.50;99.90;;;;;;5020768;28;20205;-80
2021/12/04 06:56:16;;;;;;;12.10;10.88;;;3.50;99.90;;;;;;5027182;28;20633;-80
2021/12/04 06:58:44;;;;;;;10.82;9.68;;;3.50;99.90;;;;;;5023985;28;20284;-80
2021/12/04 07:01:11;;;;;;;9.98;8.98;;;3.50;99.90;;;;;;5023763;28;20210;-80
2021/12/04 07:03:39;;;;;;;10.20;9.20;;;3.50;99.90;;;;;;5029751;28;20194;-80
2021/12/04 07:06:07;;;;;;;13.30;10.32;;;3.50;99.90;;;;;;5026803;28;20202;-80
2021/12/04 07:08:34;;;;;;;11.18;10.07;;;3.50;99.90;;;;;;5027176;28;20202;-80
2021/12/04 07:11:04;;;;;;;10.75;9.70;;;3.60;99.90;;;;;;5023029;28;20218;-80
2021/12/04 07:13:32;;;;;;;11.32;10.13;;;3.60;99.90;;;;;;5020927;28;20241;-80
2021/12/04 07:16:04;;;;;;;11.00;9.60;;;3.60;99.90;;;;;;5026428;28;20205;-80
2021/12/04 07:18:32;;;;;;;9.75;8.80;;;3.60;99.90;;;;;;5024306;28;20202;-80
2021/12/04 07:20:59;;;;;;;10.63;9.63;;;3.70;99.90;;;;;;5028895;28;20225;-81
2021/12/04 07:23:26;;;;;;;10.27;8.60;;;3.70;99.90;;;;;;5028559;28;20234;-80
2021/12/04 07:25:53;;;;;;;10.27;8.85;;;3.70;99.90;;;;;;5025839;28;20204;-81
2021/12/04 07:28:20;;;;;;;9.73;8.82;;;3.70;99.90;;;;;;5024137;28;20286;-82
2021/12/04 07:30:47;;;;;;;11.63;10.27;;;3.80;99.90;;;;;;5023258;28;20217;-82
2021/12/04 07:33:16;;;;;;;10.57;9.52;;;3.80;99.90;;;;;;5029579;28;20297;-81
2021/12/04 07:35:43;;;;;;;8.73;7.93;;;3.90;99.90;;;;;;5017646;28;20199;-82
2021/12/04 07:38:10;;;;;;;7.32;6.25;;;3.90;99.90;;;;;;5014409;28;20249;-77
2021/12/04 07:40:38;;;;;;;9.43;8.52;;;4.10;99.90;;;;;;5020057;28;20628;-77
2021/12/04 07:43:05;;;;;;;8.57;7.88;;;4.30;99.90;;;;;;5021605;28;20229;-79
2021/12/04 07:45:33;;;;;;;8.88;8.18;;;4.30;99.90;;;;;;5016341;28;20588;-84
2021/12/04 07:48:00;;;;;;;9.63;8.55;;;4.30;99.90;;;;;;5021102;28;20195;-81
2021/12/04 07:50:29;;;;;;;8.68;7.90;;;4.30;99.90;;;;;;5021763;28;20304;-81
2021/12/04 07:52:57;;;;;;;9.02;8.15;;;4.40;99.90;;;;;;5023128;28;20194;-81
2021/12/04 07:55:24;;;;;;;8.18;7.38;;;4.30;99.90;;;;;;5025699;28;20202;-80
2021/12/04 07:57:52;;;;;;;8.65;7.85;;;4.30;99.90;;;;;;5022813;28;20212;-80
2021/12/04 08:00:20;;;;;;;7.75;7.05;;;4.30;99.90;;;;;;5021880;28;20217;-79
2021/12/04 08:02:48;;;;;;;9.70;8.57;;;4.40;99.90;;;;;;5025161;28;20238;-79
2021/12/04 08:05:17;;;;;;;7.82;7.13;;;4.40;99.90;;;;;;5027566;28;20190;-80
2021/12/04 08:07:45;;;;;;;9.55;8.40;;;4.30;99.90;;;;;;5028138;28;20224;-81
2021/12/04 08:10:15;;;;;;;10.95;8.70;;;4.30;99.90;;;;;;5037251;28;20221;-80
2021/12/04 08:12:42;;;;;;;10.70;9.60;;;4.30;99.90;;;;;;5033227;28;20312;-80
2021/12/04 08:15:10;;;;;;;9.85;8.95;;;4.30;99.90;;;;;;5030776;28;20233;-80
2021/12/04 08:17:38;;;;;;;11.40;9.13;;;4.40;99.90;;;;;;5011571;28;20205;-79
2021/12/04 08:20:06;;;;;;;10.18;9.20;;;4.40;99.90;;;;;;5022039;28;20224;-80
2021/12/04 08:22:34;;;;;;;14.52;8.93;;;4.40;99.90;;;;;;5029373;28;20214;-80
2021/12/04 08:25:03;;;;;;;9.40;8.50;;;4.40;99.90;;;;;;5030735;28;20242;-80
2021/12/04 08:27:30;;;;;;;12.80;9.20;;;4.60;99.90;;;;;;5030340;28;20197;-80
2021/12/04 08:29:57;;;;;;;9.48;8.57;;;4.50;99.90;;;;;;5030100;28;20645;-80
2021/12/04 08:32:24;;;;;;;9.48;8.55;;;4.60;99.90;;;;;;5030358;28;20221;-80
2021/12/04 08:34:52;;;;;;;8.93;8.05;;;4.60;99.90;;;;;;5021325;28;20229;-80
2021/12/04 08:37:19;;;;;;;10.38;8.63;;;4.60;99.90;;;;;;5029540;28;20336;-80
2021/12/04 08:39:48;;;;;;;9.52;8.57;;;4.70;99.90;;;;;;5023457;28;20552;-80
2021/12/04 08:42:19;;;;;;;8.93;8.02;;;4.80;99.90;;;;;;5023139;28;20304;-78
2021/12/04 08:44:47;;;;;;;8.43;7.53;;;4.90;99.90;;;;;;5014425;28;20206;-81
2021/12/04 08:47:14;;;;;;;6.90;6.30;;;4.90;99.90;;;;;;5023280;28;20217;-81
2021/12/04 08:49:43;;;;;;;8.30;7.60;;;5.00;99.90;;;;;;5024672;28;20308;-81
2021/12/04 08:52:10;;;;;;;7.53;6.82;;;5.10;99.90;;;;;;5020493;28;20538;-81
2021/12/04 08:54:39;;;;;;;7.38;6.68;;;5.10;99.90;;;;;;5021082;28;20281;-82
2021/12/04 08:57:06;;;;;;;7.97;7.00;;;5.20;99.90;;;;;;5027141;28;20198;-85
2021/12/04 08:59:35;;;;;;;7.68;6.97;;;5.30;99.90;;;;;;5022823;28;20224;-81
2021/12/04 09:02:02;;;;;;;7.60;6.38;;;5.40;99.90;;;;;;5026291;28;20585;-80
2021/12/04 09:04:31;;;;;;;7.25;6.57;;;5.40;99.90;;;;;;5024565;28;20285;-81
2021/12/04 09:06:59;;;;;;;6.60;6.00;;;5.50;99.90;;;;;;5023229;28;21054;-81
2021/12/04 09:09:28;;;;;;;7.43;5.80;;;5.60;99.90;;;;;;5023993;28;20258;-81
2021/12/04 09:11:59;;;;;;;6.30;5.70;;;5.60;99.90;;;;;;5022485;28;20644;-80
2021/12/04 09:14:29;;;;;;;5.93;5.43;;;5.60;99.90;;;;;;5029292;28;20208;-81
2021/12/04 09:16:59;;;;;;;6.50;5.75;;;5.70;99.90;;;;;;5027394;28;20202;-80
2021/12/04 09:19:26;;;;;;;5.97;5.47;;;5.70;99.90;;;;;;5024942;28;20221;-79
2021/12/04 09:21:54;;;;;;;5.13;4.63;;;5.70;99.90;;;;;;5024191;28;20194;-79
2021/12/04 09:24:26;;;;;;;5.72;5.30;;;5.80;99.90;;;;;;5028916;28;20233;-80
2021/12/04 09:26:58;;;;;;;5.45;4.95;;;5.90;99.90;;;;;;5021376;28;20203;-80
2021/12/04 09:29:44;;;;;;;7.40;6.80;;;5.90;99.90;;;;;;5022865;28;20252;-80
2021/12/04 10:00:08;;;;;;;4.93;4.05;;;6.40;99.90;;;;;;5026478;28;20213;-80
2021/12/04 10:11:26;;;;;;;4.60;3.05;;;6.70;99.90;;;;;;5020817;28;20217;-82
2021/12/04 10:20:06;;;;;;;3.05;2.78;;;6.90;99.90;;;;;;4963343;28;20277;-80
2021/12/04 10:22:40;;;;;;;2.72;2.53;;;7.00;99.90;;;;;;5020019;28;20222;-79
2021/12/04 10:33:30;;;;;;;4.68;2.75;;;7.10;99.90;;;;;;5022346;28;20657;-80
2021/12/04 10:36:03;;;;;;;3.50;3.13;;;7.10;99.90;;;;;;5021129;28;21984;-81
2021/12/04 10:38:38;;;;;;;4.50;3.90;;;7.20;99.90;;;;;;5023087;28;20200;-80
2021/12/04 10:41:06;;;;;;;3.78;3.47;;;7.20;99.90;;;;;;5022261;28;20193;-81
2021/12/04 10:43:35;;;;;;;3.50;3.20;;;7.30;99.90;;;;;;5022710;28;20290;-84
2021/12/04 10:46:12;;;;;;;3.90;3.50;;;7.30;99.90;;;;;;5025260;28;20202;-80
2021/12/04 10:48:46;;;;;;;4.78;3.20;;;7.40;99.90;;;;;;5024062;28;20194;-81
2021/12/04 10:51:23;;;;;;;5.20;3.33;;;7.50;99.90;;;;;;5019621;28;20224;-81
2021/12/04 10:53:55;;;;;;;3.38;3.10;;;7.60;99.90;;;;;;5019876;28;20223;-80
2021/12/04 10:56:29;;;;;;;4.47;4.10;;;7.60;99.90;;;;;;5016638;28;20697;-80
2021/12/04 10:59:24;;;;;;;4.25;3.95;;;7.70;99.90;;;;;;5022161;28;20638;-81
2021/12/04 11:02:00;;;;;;;4.30;3.63;;;7.80;99.90;;;;;;5021365;28;20217;-80
2021/12/04 11:04:32;;;;;;;4.90;4.50;;;7.90;99.90;;;;;;5023451;28;20826;-81
2021/12/04 11:07:22;;;;;;;7.47;5.28;;;7.90;99.90;;;;;;5021658;28;20210;-80
2021/12/04 11:27:07;;;;;;;3.45;3.20;;;8.20;99.90;;;;;;4935531;28;20280;-80
2021/12/04 11:35:53;;;;;;;4.07;3.78;;;8.40;99.90;;;;;;4988906;28;20202;-80
2021/12/04 11:38:25;;;;;;;3.88;3.58;;;8.40;99.90;;;;;;5024624;28;20538;-85
2021/12/04 11:41:21;;;;;;;6.72;4.13;;;8.70;99.90;;;;;;5024832;28;20819;-84
2021/12/04 11:43:58;;;;;;;3.67;3.38;;;8.60;99.90;;;;;;5022555;28;20226;-81
2021/12/04 11:46:41;;;;;;;2.53;2.33;;;8.70;99.90;;;;;;5022411;28;20194;-82
2021/12/04 11:49:18;;;;;;;1.80;1.70;;;8.40;99.90;;;;;;5019441;28;20222;-79
2021/12/04 11:51:56;;;;;;;1.75;1.65;;;8.80;99.90;;;;;;5028283;28;20222;-80
2021/12/04 11:54:24;;;;;;;2.90;1.10;;;8.90;99.90;;;;;;5025874;28;20403;-80
2021/12/04 11:57:04;;;;;;;1.30;1.20;;;8.90;99.90;;;;;;5022347;28;20276;-79
2021/12/04 11:59:36;;;;;;;1.10;1.00;;;8.90;99.90;;;;;;5026012;28;20313;-79
2021/12/04 12:02:05;;;;;;;1.15;0.80;;;8.90;99.90;;;;;;5024734;28;20197;-80
2021/12/04 12:04:36;;;;;;;1.02;0.95;;;9.00;99.90;;;;;;5022418;28;20245;-78
2021/12/04 12:07:15;;;;;;;0.80;0.80;;;9.00;99.90;;;;;;5021067;28;20209;-80
2021/12/04 12:09:42;;;;;;;1.02;0.80;;;9.00;99.90;;;;;;5021030;28;20218;-80
2021/12/04 12:12:13;;;;;;;1.08;0.80;;;9.10;99.90;;;;;;5027797;28;20198;-80
2021/12/04 12:14:47;;;;;;;1.15;1.05;;;9.20;99.90;;;;;;5019721;28;20202;-80
2021/12/04 12:17:16;;;;;;;1.05;0.95;;;9.20;99.90;;;;;;5027659;28;20194;-80
2021/12/04 12:19:51;;;;;;;2.15;1.02;;;9.30;99.90;;;;;;5025513;28;20654;-80
2021/12/04 12:22:37;;;;;;;0.90;0.80;;;9.30;99.90;;;;;;5025405;28;20373;-79
2021/12/04 12:25:20;;;;;;;1.13;0.90;;;9.40;99.90;;;;;;5023108;28;20225;-80
2021/12/04 12:27:58;;;;;;;1.50;0.80;;;9.50;99.90;;;;;;5020581;28;20408;-80
2021/12/04 12:33:24;;;;;;;1.00;0.80;;;9.60;99.90;;;;;;5031267;28;20205;-80
2021/12/04 12:36:03;;;;;;;0.75;0.70;;;9.60;99.90;;;;;;5015136;28;20212;-79
2021/12/04 12:38:47;;;;;;;0.80;0.70;;;9.60;99.90;;;;;;5025787;28;20560;-80
2021/12/04 12:41:21;;;;;;;1.10;0.70;;;9.60;99.90;;;;;;5026233;28;20263;-80
2021/12/04 12:43:53;;;;;;;0.80;0.70;;;9.70;99.90;;;;;;5028642;28;20231;-80
2021/12/04 12:46:33;;;;;;;0.90;0.70;;;9.70;99.90;;;;;;5028934;28;20193;-79
2021/12/04 12:49:00;;;;;;;0.90;0.70;;;9.70;99.90;;;;;;5025091;28;20214;-79
2021/12/04 12:51:31;;;;;;;0.98;0.88;;;9.70;99.90;;;;;;5025227;28;20262;-80
2021/12/04 12:54:00;;;;;;;1.40;0.80;;;9.60;99.90;;;;;;5025531;28;20221;-80
2021/12/04 12:56:31;;;;;;;1.15;0.80;;;9.50;99.90;;;;;;5021778;28;20826;-80
2021/12/04 12:59:02;;;;;;;0.80;0.60;;;9.50;99.90;;;;;;5022269;28;20283;-80
2021/12/04 13:12:49;;;;;;;0.82;0.70;;;9.50;99.90;;;;;;5021757;28;20194;-79
2021/12/04 13:15:30;;;;;;;0.80;0.80;;;9.50;99.90;;;;;;5021036;28;20630;-79
2021/12/04 13:18:09;;;;;;;0.70;0.70;;;9.40;99.90;;;;;;5019042;28;20243;-79
2021/12/04 13:20:36;;;;;;;0.70;0.70;;;9.40;99.90;;;;;;5023231;28;20193;-80
2021/12/04 13:23:10;;;;;;;0.73;0.60;;;9.40;99.90;;;;;;5029066;28;20580;-79
2021/12/04 13:25:37;;;;;;;0.80;0.70;;;9.50;99.90;;;;;;5029780;28;20193;-79
2021/12/04 13:30:31;;;;;;;0.88;0.80;;;9.50;99.90;;;;;;5022057;28;20208;-80
2021/12/04 13:32:59;;;;;;;0.82;0.68;;;9.50;99.90;;;;;;5029360;28;20289;-81
2021/12/04 13:35:27;;;;;;;1.83;0.70;;;9.60;99.90;;;;;;5028409;28;23837;-81
2021/12/04 13:38:00;;;;;;;0.70;0.70;;;9.60;99.90;;;;;;5025547;28;20237;-80
2021/12/04 13:40:28;;;;;;;0.80;0.65;;;9.70;99.90;;;;;;5032901;28;20186;-80
2021/12/04 13:42:55;;;;;;;0.93;0.75;;;9.60;99.90;;;;;;5028545;28;20194;-80
2021/12/04 13:45:22;;;;;;;0.82;0.80;;;9.60;99.90;;;;;;5027066;28;20707;-77
2021/12/04 13:47:52;;;;;;;0.70;0.68;;;9.50;99.90;;;;;;5019839;28;20225;-80
2021/12/04 13:53:16;;;;;;;0.80;0.70;;;9.30;99.90;;;;;;5026855;28;20218;-81
2021/12/04 13:55:45;;;;;;;0.80;0.65;;;9.30;99.90;;;;;;5026267;28;20224;-81
2021/12/04 13:58:13;;;;;;;1.20;1.10;;;9.20;99.90;;;;;;5027636;28;20218;-84
2021/12/04 14:00:39;;;;;;;0.95;0.80;;;9.20;99.90;;;;;;5024391;28;20202;-85
2021/12/04 14:03:06;;;;;;;0.80;0.80;;;9.20;99.90;;;;;;5028711;28;20200;-79
2021/12/04 14:05:35;;;;;;;1.17;1.02;;;9.20;99.90;;;;;;5026176;28;20634;-79
2021/12/04 14:08:05;;;;;;;1.40;0.80;;;9.10;99.90;;;;;;5026886;28;21970;-80
2021/12/04 14:10:34;;;;;;;1.00;0.90;;;9.10;99.90;;;;;;5023311;28;20958;-80
2021/12/04 14:13:04;;;;;;;0.80;0.70;;;9.10;99.90;;;;;;5020816;28;20197;-79
2021/12/04 14:15:32;;;;;;;1.52;0.98;;;9.00;99.90;;;;;;5021632;28;20657;-80
2021/12/04 14:18:01;;;;;;;1.27;1.00;;;9.00;99.90;;;;;;5016895;28;20536;-81
2021/12/04 14:20:29;;;;;;;1.10;0.90;;;8.90;99.90;;;;;;5022203;28;20209;-80
2021/12/04 14:22:58;;;;;;;0.90;0.80;;;8.90;99.90;;;;;;5026537;28;20204;-80
2021/12/04 14:25:27;;;;;;;1.30;0.98;;;8.90;99.90;;;;;;5024367;28;20259;-79
2021/12/04 14:27:56;;;;;;;1.00;0.90;;;8.90;99.90;;;;;;5019411;28;20206;-80
2021/12/04 14:30:25;;;;;;;1.27;1.10;;;8.90;99.90;;;;;;5026410;28;20190;-80
2021/12/04 14:32:55;;;;;;;0.98;0.88;;;8.90;99.90;;;;;;5021863;28;20622;-80
2021/12/04 14:35:26;;;;;;;1.17;1.00;;;8.90;99.90;;;;;;5014863;28;20220;-79
2021/12/04 14:37:55;;;;;;;0.90;0.80;;;8.80;99.90;;;;;;5020743;28;20252;-80
2021/12/04 14:40:27;;;;;;;0.95;0.80;;;8.80;99.90;;;;;;5023153;28;20224;-79
2021/12/04 14:42:56;;;;;;;1.00;0.90;;;8.80;99.90;;;;;;5020159;28;20218;-79
2021/12/04 14:45:25;;;;;;;1.20;1.10;;;8.80;99.90;;;;;;5024470;28;20221;-81
2021/12/04 14:47:56;;;;;;;2.13;0.90;;;8.80;99.90;;;;;;5024053;28;20308;-80
2021/12/04 14:50:25;;;;;;;1.58;1.17;;;8.80;99.90;;;;;;5024991;28;20198;-80
2021/12/04 14:52:55;;;;;;;1.95;1.50;;;8.80;99.90;;;;;;5025801;28;20208;-79
2021/12/04 14:55:26;;;;;;;3.28;1.80;;;8.80;99.90;;;;;;5018909;28;20309;-78
2021/12/04 14:57:53;;;;;;;1.65;1.40;;;8.80;99.90;;;;;;5024200;28;20253;-78
2021/12/04 15:00:24;;;;;;;2.20;1.33;;;8.80;99.90;;;;;;5026058;28;20201;-78
2021/12/04 15:02:56;;;;;;;1.20;1.10;;;8.80;99.90;;;;;;5014762;28;21146;-78
2021/12/04 15:05:33;;;;;;;1.52;1.42;;;8.70;99.90;;;;;;5031252;28;20232;-78
2021/12/04 15:08:03;;;;;;;2.15;1.30;;;8.80;99.90;;;;;;5008876;28;20362;-79
2021/12/04 15:10:32;;;;;;;1.98;1.88;;;8.70;99.90;;;;;;5022371;28;20605;-78
2021/12/04 15:12:59;;;;;;;2.28;1.70;;;8.80;99.90;;;;;;5026617;28;20296;-78
2021/12/04 15:15:30;;;;;;;1.75;1.65;;;8.80;99.90;;;;;;5021661;28;20202;-80
2021/12/04 15:18:00;;;;;;;2.65;1.48;;;8.70;99.90;;;;;;5017149;28;20222;-78
2021/12/04 15:20:33;;;;;;;2.22;1.70;;;8.80;99.90;;;;;;5011903;28;20202;-78
2021/12/04 15:23:04;;;;;;;1.88;1.77;;;8.80;99.90;;;;;;5020005;28;20198;-79
2021/12/04 15:25:35;;;;;;;3.00;2.70;;;8.80;99.90;;;;;;5011880;28;20244;-80
2021/12/04 15:28:14;;;;;;;3.10;2.80;;;8.80;99.90;;;;;;5018744;28;20259;-79